Time;durP1;ratioP1;P1;durP2;ratioP2;P2;SDS_P1;SDS_P2;PMS_P1;PMS_P2;Temp;Humidity;BMP_temperature;BMP_pressure;BME280_temperature;BME280_humidity;BME280_pressure;Samples;Min_cycle;Max_cycle;Signal;HPM_P1;HPM_P2
2022/08/26 00:02:01;;;;;;;7.72;4.70;;;27.30;47.50;26.20;100934.00;;;;5075196;28;20059;-71
2022/08/26 00:04:48;;;;;;;4.90;4.25;;;27.30;47.60;26.20;100929.00;;;;5066015;28;20451;-71
2022/08/26 00:07:34;;;;;;;4.88;4.38;;;27.30;47.60;26.20;100925.00;;;;5083092;28;20040;-71
2022/08/26 00:10:20;;;;;;;5.88;4.68;;;27.30;47.60;26.20;100933.00;;;;5080579;28;20040;-71
2022/08/26 00:13:06;;;;;;;6.53;4.15;;;27.20;47.50;26.20;100929.00;;;;5085242;28;20424;-71
2022/08/26 00:15:52;;;;;;;5.00;3.95;;;27.30;47.60;26.20;100934.00;;;;5074890;28;20070;-71
2022/08/26 00:18:38;;;;;;;6.95;4.32;;;27.20;47.50;26.20;100936.00;;;;5085157;28;20035;-71
2022/08/26 00:21:25;;;;;;;6.88;4.60;;;27.20;47.60;26.20;100930.00;;;;5072308;28;20139;-71
2022/08/26 00:24:12;;;;;;;5.03;4.27;;;27.20;47.50;26.20;100933.00;;;;5079773;28;20500;-71
2022/08/26 00:26:58;;;;;;;10.70;4.78;;;27.20;47.60;26.20;100929.00;;;;5087804;28;20039;-71
2022/08/26 00:29:44;;;;;;;5.60;4.93;;;27.30;47.60;26.20;100926.00;;;;5054615;28;20260;-71
2022/08/26 00:32:30;;;;;;;5.88;5.10;;;27.30;47.60;26.20;100926.00;;;;5085151;28;20129;-71
2022/08/26 00:35:16;;;;;;;8.23;4.63;;;27.20;47.60;26.20;100927.00;;;;5087042;28;20581;-71
2022/08/26 00:38:02;;;;;;;6.88;5.20;;;27.20;47.60;26.20;100925.00;;;;5086481;28;20043;-71
2022/08/26 00:40:52;;;;;;;5.38;4.88;;;27.20;47.70;26.10;100936.00;;;;5082945;28;20078;-71
2022/08/26 00:43:38;;;;;;;7.07;4.60;;;27.20;47.70;26.10;100927.00;;;;5069941;28;20040;-71
2022/08/26 00:46:28;;;;;;;5.57;4.35;;;27.30;47.80;26.10;100919.00;;;;5082666;28;20451;-71
2022/08/26 00:49:28;;;;;;;4.95;4.43;;;27.20;47.80;26.10;100929.00;;;;5060667;28;20043;-71
2022/08/26 00:52:17;;;;;;;5.03;4.53;;;27.20;47.80;26.10;100921.00;;;;5057418;28;20040;-71
2022/08/26 00:55:18;;;;;;;4.80;4.28;;;27.30;47.80;26.10;100928.00;;;;5069313;28;20047;-71
2022/08/26 00:58:04;;;;;;;5.78;4.38;;;27.20;47.90;26.10;100923.00;;;;5074691;28;20405;-71
2022/08/26 01:00:51;;;;;;;5.82;4.47;;;27.20;47.80;26.10;100924.00;;;;5060842;28;20047;-71
2022/08/26 01:03:37;;;;;;;5.78;4.05;;;27.20;47.80;26.10;100920.00;;;;5070132;28;20508;-71
2022/08/26 01:06:23;;;;;;;5.40;4.78;;;27.20;47.80;26.10;100912.00;;;;5066017;28;20047;-71
2022/08/26 01:09:09;;;;;;;6.85;4.40;;;27.20;48.50;26.10;100918.00;;;;5056557;28;20089;-71
2022/08/26 01:11:58;;;;;;;5.03;4.63;;;27.20;47.80;26.10;100919.00;;;;5073654;28;20055;-71
2022/08/26 01:14:44;;;;;;;5.13;4.63;;;27.20;47.70;26.10;100925.00;;;;5058963;28;20043;-71
2022/08/26 01:17:30;;;;;;;5.53;4.95;;;27.20;47.80;26.10;100923.00;;;;5078119;28;20089;-71
2022/08/26 01:20:52;;;;;;;5.93;4.65;;;27.20;47.90;26.10;100922.00;;;;5069913;28;20043;-71
2022/08/26 01:23:45;;;;;;;5.95;4.53;;;27.20;48.00;26.10;100924.00;;;;5078954;28;20455;-71
2022/08/26 01:26:34;;;;;;;6.40;5.18;;;27.20;48.00;26.10;100925.00;;;;5065734;28;20044;-71
2022/08/26 01:29:20;;;;;;;5.97;5.38;;;27.20;48.00;26.10;100945.00;;;;5071715;28;20044;-71
2022/08/26 01:32:08;;;;;;;7.72;5.75;;;27.20;47.90;26.10;100949.00;;;;5068528;28;20496;-71
2022/08/26 01:34:54;;;;;;;9.52;5.43;;;27.20;48.00;26.10;100948.00;;;;5068711;28;20500;-71
2022/08/26 01:37:40;;;;;;;5.85;5.35;;;27.10;47.90;26.10;100950.00;;;;5071630;28;20033;-71
2022/08/26 01:40:31;;;;;;;7.25;5.13;;;27.20;48.10;26.10;100948.00;;;;5057852;28;20050;-71
2022/08/26 01:43:21;;;;;;;7.32;5.47;;;27.20;48.10;26.10;100956.00;;;;5059976;28;20088;-71
2022/08/26 01:46:07;;;;;;;6.13;5.53;;;27.20;48.20;26.10;100960.00;;;;5069568;28;20027;-71
2022/08/26 01:48:53;;;;;;;7.30;5.88;;;27.20;48.20;26.10;100951.00;;;;5070690;28;20079;-71
2022/08/26 01:51:40;;;;;;;7.40;5.60;;;27.20;48.20;26.10;100957.00;;;;5074566;28;20028;-71
2022/08/26 01:54:26;;;;;;;8.27;5.13;;;27.20;48.10;26.10;100961.00;;;;5064684;28;20443;-71
2022/08/26 01:57:13;;;;;;;4.88;4.45;;;27.20;48.00;26.10;100969.00;;;;5058665;28;20185;-71
2022/08/26 02:00:00;;;;;;;6.25;5.03;;;27.20;48.00;26.10;100951.00;;;;5070578;28;20541;-71
2022/08/26 02:03:15;;;;;;;8.07;5.25;;;27.20;48.00;26.10;100959.00;;;;5090059;28;20135;-71
2022/08/26 02:06:05;;;;;;;6.88;5.45;;;27.20;48.00;26.10;100963.00;;;;5078760;28;20461;-71
2022/08/26 02:08:54;;;;;;;7.28;5.85;;;27.20;48.00;26.10;100951.00;;;;5069354;28;20051;-71
2022/08/26 02:11:40;;;;;;;7.13;5.15;;;27.20;48.20;26.10;100956.00;;;;5059383;28;20039;-71
2022/08/26 02:14:33;;;;;;;9.02;6.28;;;27.20;48.00;26.10;100959.00;;;;5093318;28;20039;-71
2022/08/26 02:17:24;;;;;;;8.43;5.43;;;27.20;48.00;26.10;100965.00;;;;5068593;28;20071;-71
2022/08/26 02:20:13;;;;;;;9.27;6.38;;;27.20;48.10;26.10;100955.00;;;;5050640;28;20130;-71
2022/08/26 02:22:59;;;;;;;8.50;5.55;;;27.20;48.20;26.10;100953.00;;;;5075011;28;20075;-71
2022/08/26 02:25:52;;;;;;;7.63;5.10;;;27.20;48.10;26.10;100963.00;;;;5081211;28;20432;-71
2022/08/26 02:29:04;;;;;;;6.57;5.65;;;27.20;48.10;26.10;100964.00;;;;5062196;28;20051;-71
2022/08/26 02:31:51;;;;;;;6.22;5.55;;;27.20;48.20;26.10;100962.00;;;;5057491;28;20041;-71
2022/08/26 02:34:37;;;;;;;7.20;5.25;;;27.20;48.30;26.10;100957.00;;;;5067886;28;20450;-71
2022/08/26 02:37:26;;;;;;;6.78;5.05;;;27.10;48.20;26.10;100963.00;;;;5076623;28;20040;-71
2022/08/26 02:40:13;;;;;;;5.82;5.22;;;27.20;48.20;26.10;100964.00;;;;5046545;28;20447;-71
2022/08/26 02:42:59;;;;;;;9.15;5.72;;;27.20;48.20;26.10;100959.00;;;;5069625;28;20040;-71
2022/08/26 02:45:45;;;;;;;7.15;5.65;;;27.20;48.20;26.10;100956.00;;;;5080878;28;20051;-71
2022/08/26 02:48:32;;;;;;;6.17;5.13;;;27.20;48.20;26.00;100957.00;;;;5087407;28;20044;-71
2022/08/26 02:51:18;;;;;;;8.13;6.90;;;27.20;48.40;26.10;100963.00;;;;5054383;28;20396;-71
2022/08/26 02:54:04;;;;;;;7.80;5.82;;;27.20;48.50;26.00;100958.00;;;;5087754;28;20439;-71
2022/08/26 02:56:50;;;;;;;7.07;6.35;;;27.10;48.30;26.00;100959.00;;;;5085611;28;20048;-71
2022/08/26 02:59:38;;;;;;;9.77;5.82;;;27.10;48.40;26.00;100954.00;;;;5085074;28;20040;-71
2022/08/26 03:02:24;;;;;;;7.20;6.00;;;27.10;48.40;26.00;100951.00;;;;5068758;28;20201;-71
2022/08/26 03:05:10;;;;;;;8.57;6.43;;;27.10;48.40;26.00;100958.00;;;;5087222;28;20082;-71
2022/08/26 03:07:56;;;;;;;6.93;6.22;;;27.10;48.40;26.00;100960.00;;;;5086218;28;20056;-71
2022/08/26 03:10:42;;;;;;;8.93;6.90;;;27.10;48.50;26.00;100951.00;;;;5077031;28;20047;-71
2022/08/26 03:13:28;;;;;;;6.05;5.45;;;27.10;48.50;26.00;100953.00;;;;5089292;28;20051;-71
2022/08/26 03:16:14;;;;;;;7.38;5.65;;;27.10;48.50;26.00;100953.00;;;;5089813;28;20042;-71
2022/08/26 03:19:01;;;;;;;9.02;6.40;;;27.00;48.30;26.00;100944.00;;;;5073013;28;20076;-71
2022/08/26 03:21:47;;;;;;;9.38;7.45;;;27.10;48.50;26.00;100946.00;;;;5094295;28;20037;-71
2022/08/26 03:24:33;;;;;;;6.78;5.93;;;27.10;48.50;26.00;100948.00;;;;5074952;28;20494;-71
2022/08/26 03:27:19;;;;;;;7.65;6.00;;;27.10;49.20;26.00;100939.00;;;;5076084;28;20036;-71
2022/08/26 03:33:12;;;;;;;6.85;6.15;;;27.00;48.50;26.00;100947.00;;;;5086295;28;20515;-71
2022/08/26 03:35:59;;;;;;;6.85;5.45;;;27.00;48.50;26.00;100943.00;;;;5078937;28;20036;-71
2022/08/26 03:38:45;;;;;;;6.95;6.15;;;27.00;48.50;26.00;100946.00;;;;5077198;28;20130;-71
2022/08/26 03:41:33;;;;;;;8.35;6.78;;;27.10;48.60;26.00;100949.00;;;;5068450;28;20045;-71
2022/08/26 03:44:19;;;;;;;6.75;6.03;;;27.00;48.60;26.00;100946.00;;;;5088313;28;20088;-71
2022/08/26 03:47:06;;;;;;;7.43;6.13;;;27.00;48.60;26.00;100950.00;;;;5068616;28;20035;-71
2022/08/26 03:49:52;;;;;;;7.50;5.80;;;27.00;48.50;26.00;100950.00;;;;5073372;28;20465;-71
2022/08/26 03:52:38;;;;;;;7.22;5.82;;;27.00;48.60;26.00;100955.00;;;;5083100;28;20089;-71
2022/08/26 03:55:27;;;;;;;8.15;5.95;;;27.00;48.70;26.00;100960.00;;;;5075864;28;20074;-71
2022/08/26 03:58:13;;;;;;;9.30;6.30;;;27.00;48.80;26.00;100958.00;;;;5071238;28;20039;-71
2022/08/26 04:00:59;;;;;;;8.70;6.28;;;27.00;48.90;26.00;100967.00;;;;5084967;28;20110;-71
2022/08/26 04:03:57;;;;;;;7.32;6.55;;;27.00;49.00;26.00;100965.00;;;;5088245;28;20039;-71
2022/08/26 04:06:43;;;;;;;;;;;27.00;49.10;25.90;100956.00;;;;5068186;28;20408;-71
2022/08/26 04:09:30;;;;;;;7.40;6.20;;;27.00;48.80;25.90;100964.00;;;;5087917;28;19997;-71
2022/08/26 04:12:16;;;;;;;6.55;5.95;;;27.00;48.80;25.90;100959.00;;;;5065033;28;20512;-71
2022/08/26 04:15:05;;;;;;;7.70;5.95;;;27.00;48.90;25.90;100955.00;;;;5083067;28;20103;-71
2022/08/26 04:17:51;;;;;;;7.63;6.47;;;27.00;48.90;25.90;100959.00;;;;5066444;28;20075;-71
2022/08/26 04:20:38;;;;;;;10.18;7.30;;;27.00;48.90;25.90;100960.00;;;;5083458;28;20090;-71
2022/08/26 04:23:24;;;;;;;7.15;6.45;;;27.00;48.90;25.90;100960.00;;;;5083165;28;20095;-71
2022/08/26 04:26:10;;;;;;;8.07;6.30;;;26.90;48.90;25.90;100960.00;;;;5081643;28;20035;-71
2022/08/26 04:28:56;;;;;;;7.57;6.60;;;27.00;48.90;25.90;100965.00;;;;5084259;28;20036;-71
2022/08/26 04:31:42;;;;;;;6.90;6.22;;;27.00;49.00;25.90;100960.00;;;;5086048;28;20062;-71
2022/08/26 04:34:28;;;;;;;8.10;6.65;;;27.00;49.10;25.90;100964.00;;;;5079548;28;20220;-71
2022/08/26 04:37:15;;;;;;;10.35;7.32;;;27.00;49.20;25.90;100956.00;;;;5070367;28;20172;-71
2022/08/26 04:40:01;;;;;;;7.53;6.78;;;27.00;49.20;25.90;100966.00;;;;5084076;28;20126;-71
2022/08/26 04:42:47;;;;;;;10.23;7.22;;;26.90;49.10;25.90;100965.00;;;;5074153;28;20135;-71
2022/08/26 04:45:36;;;;;;;8.30;7.43;;;27.00;49.30;25.90;100966.00;;;;5082545;28;20418;-72
2022/08/26 04:48:22;;;;;;;8.25;7.45;;;26.90;49.20;25.90;100967.00;;;;5072305;28;20063;-71
2022/08/26 04:51:08;;;;;;;10.15;7.25;;;27.00;49.20;25.90;100974.00;;;;5057494;28;20041;-71
2022/08/26 04:53:56;;;;;;;8.70;7.20;;;27.00;49.90;25.90;100974.00;;;;5076174;28;20460;-71
2022/08/26 04:56:43;;;;;;;10.55;7.15;;;26.90;49.20;25.90;100977.00;;;;5055871;28;20044;-71
2022/08/26 04:59:29;;;;;;;;;;;26.90;49.10;25.90;100974.00;;;;5060802;28;20411;-71
2022/08/26 05:02:15;;;;;;;9.45;8.02;;;27.00;49.00;25.90;100981.00;;;;5082099;28;19920;-71
2022/08/26 05:05:02;;;;;;;8.85;7.50;;;27.00;49.10;25.90;100975.00;;;;5079268;28;20082;-71
2022/08/26 05:07:48;;;;;;;11.07;8.02;;;27.00;49.20;25.90;100989.00;;;;5069604;28;20052;-71
2022/08/26 05:10:38;;;;;;;9.65;7.93;;;27.00;49.20;25.90;100986.00;;;;5080836;28;20036;-71
2022/08/26 05:13:27;;;;;;;11.20;8.13;;;26.90;49.20;25.90;100988.00;;;;5059085;28;20032;-71
2022/08/26 05:16:14;;;;;;;9.75;8.75;;;26.90;49.20;25.90;100997.00;;;;5069190;28;20109;-71
2022/08/26 05:19:00;;;;;;;11.40;7.93;;;26.90;49.20;25.90;100993.00;;;;5085150;28;20035;-71
2022/08/26 05:21:47;;;;;;;8.20;7.20;;;26.90;49.20;25.90;100996.00;;;;5079282;28;20032;-71
2022/08/26 05:24:33;;;;;;;10.27;7.45;;;26.90;49.10;25.90;100998.00;;;;5070385;28;20523;-71
2022/08/26 05:27:19;;;;;;;8.45;7.30;;;26.90;49.10;25.90;101001.00;;;;5081112;28;20052;-71
2022/08/26 05:30:06;;;;;;;10.15;7.43;;;26.90;49.10;25.90;101005.00;;;;5082427;28;20512;-71
2022/08/26 05:32:52;;;;;;;8.63;7.43;;;26.90;49.10;25.90;100998.00;;;;5083474;28;20055;-71
2022/08/26 05:35:38;;;;;;;8.18;7.32;;;26.90;49.10;25.90;101008.00;;;;5085767;28;20041;-71
2022/08/26 05:38:24;;;;;;;9.82;7.95;;;26.90;49.10;25.90;101006.00;;;;5066734;28;20082;-71
2022/08/26 05:41:20;;;;;;;12.35;8.82;;;26.90;49.10;25.90;101009.00;;;;5077692;28;20031;-71
2022/08/26 05:44:09;;;;;;;10.82;9.02;;;26.90;49.30;25.90;101011.00;;;;5070308;28;20044;-71
2022/08/26 05:46:55;;;;;;;12.38;9.45;;;26.90;49.20;25.90;101013.00;;;;5079897;28;20040;-71
2022/08/26 05:49:41;;;;;;;10.85;9.20;;;27.00;49.30;25.90;101007.00;;;;5080427;28;20529;-71
2022/08/26 05:52:27;;;;;;;9.85;7.95;;;26.90;49.20;25.90;101006.00;;;;5080016;28;20050;-71
2022/08/26 05:55:13;;;;;;;13.73;9.35;;;26.90;49.20;25.90;101012.00;;;;5075133;28;20036;-71
2022/08/26 05:57:59;;;;;;;13.82;9.57;;;26.90;49.20;25.90;101011.00;;;;5086594;28;20048;-71
2022/08/26 06:00:55;;;;;;;12.27;9.32;;;26.90;49.30;25.90;101011.00;;;;5078861;28;20048;-71
2022/08/26 06:03:45;;;;;;;12.75;9.15;;;27.00;49.40;25.90;101008.00;;;;5066395;28;20455;-71
2022/08/26 06:06:33;;;;;;;13.40;9.88;;;26.90;49.30;25.90;101007.00;;;;5081642;28;20040;-71
2022/08/26 06:09:19;;;;;;;11.32;9.27;;;26.90;49.30;25.90;101013.00;;;;5061355;28;20044;-71
2022/08/26 06:12:05;;;;;;;13.65;9.82;;;26.90;49.40;25.90;101020.00;;;;5087621;28;20070;-71
2022/08/26 06:14:52;;;;;;;14.27;9.27;;;26.90;49.30;25.90;101017.00;;;;5082399;28;20040;-71
2022/08/26 06:17:39;;;;;;;12.18;9.43;;;26.90;49.30;25.90;101018.00;;;;5083213;28;20040;-71
2022/08/26 06:20:25;;;;;;;14.50;10.52;;;26.90;49.40;25.90;101015.00;;;;5080921;28;20043;-71
2022/08/26 06:26:20;;;;;;;15.65;10.15;;;26.90;49.40;25.90;101019.00;;;;5071119;28;20375;-71
2022/08/26 06:29:07;;;;;;;13.20;9.80;;;27.00;49.50;25.90;101024.00;;;;5084817;28;20161;-71
2022/08/26 06:31:54;;;;;;;11.65;9.32;;;26.90;49.50;25.90;101028.00;;;;5077223;28;20036;-71
2022/08/26 06:34:40;;;;;;;11.63;9.23;;;26.90;49.50;25.90;101026.00;;;;5076640;28;20032;-71
2022/08/26 06:37:26;;;;;;;13.88;9.38;;;27.00;49.50;25.90;101025.00;;;;5077008;28;20278;-71
2022/08/26 06:40:12;;;;;;;12.43;9.88;;;26.90;49.50;25.90;101033.00;;;;5081186;28;20525;-71
2022/08/26 06:42:58;;;;;;;13.00;9.88;;;26.90;49.60;25.90;101036.00;;;;5082858;28;20058;-71
2022/08/26 06:45:44;;;;;;;13.35;10.43;;;26.90;49.60;25.90;101034.00;;;;5078049;28;20056;-71
2022/08/26 06:48:31;;;;;;;14.82;10.45;;;26.90;49.50;25.90;101042.00;;;;5080068;28;20466;-71
2022/08/26 06:51:22;;;;;;;16.25;10.13;;;26.90;49.60;25.90;101043.00;;;;5066844;28;20052;-71
2022/08/26 06:54:08;;;;;;;14.98;11.15;;;27.00;49.70;25.90;101049.00;;;;5067141;28;20043;-71
2022/08/26 06:56:56;;;;;;;12.93;9.90;;;27.00;49.60;25.90;101046.00;;;;5069808;28;20039;-71
2022/08/26 06:59:42;;;;;;;13.75;10.50;;;26.90;49.60;25.90;101047.00;;;;5087475;28;20538;-71
2022/08/26 07:02:28;;;;;;;14.07;10.13;;;27.00;49.60;25.90;101056.00;;;;5064978;28;20072;-71
2022/08/26 07:05:14;;;;;;;15.48;10.30;;;27.00;49.70;25.90;101051.00;;;;5079194;28;20435;-71
2022/08/26 07:08:00;;;;;;;16.63;10.50;;;27.00;49.60;25.90;101058.00;;;;5087199;28;20193;-71
2022/08/26 07:10:46;;;;;;;14.57;10.68;;;27.00;49.70;25.90;101055.00;;;;5076986;28;20039;-71
2022/08/26 07:13:36;;;;;;;14.60;10.77;;;27.00;50.40;25.90;101051.00;;;;5086040;28;20090;-71
2022/08/26 07:16:22;;;;;;;15.75;10.43;;;27.00;49.80;25.90;101053.00;;;;5061458;28;20047;-71
2022/08/26 07:19:08;;;;;;;14.68;10.38;;;26.90;49.60;25.90;101052.00;;;;5081820;28;20075;-71
2022/08/26 07:21:54;;;;;;;13.02;10.05;;;27.00;49.80;25.90;101062.00;;;;5059934;28;20040;-71
2022/08/26 07:24:40;;;;;;;15.32;11.18;;;26.90;49.70;25.90;101056.00;;;;5079406;28;20043;-71
2022/08/26 07:27:26;;;;;;;16.58;11.20;;;27.00;49.80;25.90;101061.00;;;;5069685;28;20070;-71
2022/08/26 07:30:13;;;;;;;15.05;11.20;;;27.00;49.90;25.90;101056.00;;;;5067052;28;20044;-71
2022/08/26 07:32:59;;;;;;;16.40;11.07;;;27.00;49.90;25.90;101066.00;;;;5082732;28;20502;-71
2022/08/26 07:35:45;;;;;;;16.80;12.02;;;27.00;49.90;25.90;101070.00;;;;5071537;28;20036;-71
2022/08/26 07:38:31;;;;;;;14.35;11.00;;;27.00;49.90;25.90;101068.00;;;;5073787;28;20048;-71
2022/08/26 07:41:19;;;;;;;13.38;10.88;;;27.00;50.00;25.90;101080.00;;;;5065318;28;20131;-71
2022/08/26 07:44:05;;;;;;;14.60;10.60;;;27.00;49.90;25.90;101073.00;;;;5068972;28;20043;-71
2022/08/26 07:46:51;;;;;;;15.57;11.20;;;27.00;49.90;25.90;101075.00;;;;5083984;28;20041;-71
2022/08/26 07:49:37;;;;;;;13.35;10.95;;;27.00;49.90;25.90;101082.00;;;;5087518;28;20040;-71
2022/08/26 07:52:28;;;;;;;17.08;11.98;;;27.00;49.90;25.90;101087.00;;;;5080126;28;20086;-71
2022/08/26 07:55:14;;;;;;;16.33;11.10;;;27.00;50.00;25.90;101087.00;;;;5071165;28;20497;-71
2022/08/26 07:58:01;;;;;;;13.70;10.38;;;27.00;49.90;25.90;101090.00;;;;5068105;28;20044;-71
2022/08/26 08:00:47;;;;;;;13.80;10.20;;;27.00;49.90;25.90;101091.00;;;;5083454;28;20045;-71
2022/08/26 08:03:33;;;;;;;15.77;11.82;;;27.00;49.90;25.90;101091.00;;;;5086499;28;20135;-71
2022/08/26 08:06:21;;;;;;;13.38;11.07;;;27.10;50.00;25.90;101089.00;;;;5086744;28;20047;-71
2022/08/26 08:09:07;;;;;;;14.55;11.30;;;27.00;50.00;25.90;101091.00;;;;5078049;28;20040;-71
2022/08/26 08:11:53;;;;;;;15.45;11.57;;;27.00;50.00;25.90;101095.00;;;;5081896;28;20074;-71
2022/08/26 08:14:40;;;;;;;14.90;11.38;;;27.00;50.00;25.90;101095.00;;;;5084649;28;20051;-71
2022/08/26 08:17:27;;;;;;;13.48;10.82;;;27.00;50.00;25.90;101103.00;;;;5085492;28;20431;-71
2022/08/26 08:20:13;;;;;;;14.93;11.63;;;27.10;50.10;25.90;101100.00;;;;5085000;28;20513;-71
2022/08/26 08:23:00;;;;;;;13.75;11.07;;;27.00;50.00;25.90;101099.00;;;;5076062;28;20139;-71
2022/08/26 08:25:47;;;;;;;14.82;10.38;;;27.00;50.10;25.90;101104.00;;;;5081434;28;20055;-71
2022/08/26 08:28:35;;;;;;;13.52;10.90;;;27.10;50.10;25.90;101108.00;;;;5084567;28;20067;-71
2022/08/26 08:31:28;;;;;;;15.55;11.30;;;27.00;50.10;25.90;101112.00;;;;5069652;28;20405;-71
2022/08/26 08:34:15;;;;;;;15.32;11.38;;;27.10;50.20;25.90;101111.00;;;;5075131;28;20461;-71
2022/08/26 08:37:01;;;;;;;15.18;11.23;;;27.00;50.10;25.90;101116.00;;;;5083173;28;20056;-71
2022/08/26 08:39:47;;;;;;;17.95;11.90;;;27.10;50.20;25.90;101114.00;;;;5083875;28;20467;-71
2022/08/26 08:43:04;;;;;;;13.80;10.95;;;27.00;50.10;25.90;101108.00;;;;5088586;28;20044;-71
2022/08/26 08:45:55;;;;;;;14.90;11.63;;;27.00;50.20;25.90;101120.00;;;;5067326;28;20119;-71
2022/08/26 08:48:43;;;;;;;14.57;11.98;;;27.10;50.20;25.90;101113.00;;;;5060165;28;20040;-71
2022/08/26 08:51:58;;;;;;;14.43;11.52;;;27.00;50.20;25.90;101114.00;;;;5061425;28;20109;-71
2022/08/26 08:54:44;;;;;;;15.95;11.43;;;27.00;50.20;25.90;101113.00;;;;5071648;28;20075;-71
2022/08/26 08:57:53;;;;;;;13.98;10.48;;;27.10;50.30;25.90;101112.00;;;;5085752;28;20135;-71
2022/08/26 09:00:47;;;;;;;13.60;10.95;;;27.00;50.30;25.90;101109.00;;;;5058686;28;20047;-71
2022/08/26 09:04:18;;;;;;;13.40;11.25;;;27.00;50.30;25.90;101103.00;;;;5079311;28;20051;-71
2022/08/26 09:07:07;;;;;;;12.35;9.85;;;27.00;50.20;25.90;101107.00;;;;5070663;28;20055;-71
2022/08/26 09:10:21;;;;;;;15.48;11.40;;;27.00;50.30;25.90;101112.00;;;;5069823;28;20052;-71
2022/08/26 09:13:14;;;;;;;13.25;11.02;;;27.00;50.40;25.90;101111.00;;;;5059063;28;20035;-71
2022/08/26 09:16:08;;;;;;;12.52;10.50;;;27.00;50.40;25.90;101114.00;;;;5064836;28;20040;-71
2022/08/26 09:19:23;;;;;;;13.90;10.55;;;27.00;50.40;25.90;101119.00;;;;5074144;28;20119;-71
2022/08/26 09:22:09;;;;;;;13.00;11.25;;;27.00;50.50;25.90;101111.00;;;;5069948;28;20804;-71
2022/08/26 09:24:55;;;;;;;14.10;10.82;;;27.00;50.40;25.90;101119.00;;;;5084861;28;20464;-71
2022/08/26 09:27:46;;;;;;;12.68;10.80;;;27.00;50.50;25.90;101117.00;;;;5072564;28;20044;-71
2022/08/26 09:30:34;;;;;;;15.23;11.02;;;27.10;50.60;25.90;101123.00;;;;5069988;28;20055;-71
2022/08/26 09:33:20;;;;;;;15.05;11.15;;;27.00;50.50;25.90;101126.00;;;;5068012;28;20132;-71
2022/08/26 09:36:22;;;;;;;13.63;11.13;;;27.00;50.60;25.90;101123.00;;;;5056050;28;20043;-71
2022/08/26 09:39:23;;;;;;;15.48;11.57;;;27.00;50.70;25.90;101126.00;;;;5068737;28;20335;-71
2022/08/26 09:42:24;;;;;;;13.35;11.13;;;27.00;50.60;25.90;101121.00;;;;5082080;28;20043;-71
2022/08/26 09:45:11;;;;;;;13.63;10.50;;;27.00;50.70;25.90;101120.00;;;;5071473;28;20104;-71
2022/08/26 09:47:57;;;;;;;;;;;27.10;50.80;25.90;101121.00;;;;5060987;28;20137;-71
2022/08/26 09:50:59;;;;;;;11.00;9.90;;;27.10;50.50;25.90;101119.00;;;;5062404;28;19920;-71
2022/08/26 09:53:56;;;;;;;15.95;11.43;;;27.10;50.70;25.90;101127.00;;;;5071379;28;20040;-71
2022/08/26 09:56:45;;;;;;;13.48;10.85;;;27.10;50.70;25.90;101118.00;;;;5068537;28;20055;-71
2022/08/26 09:59:31;;;;;;;13.35;10.73;;;27.10;50.70;25.90;101121.00;;;;5073626;28;20035;-71
2022/08/26 10:02:31;;;;;;;15.77;11.13;;;27.00;50.70;25.90;101115.00;;;;5085852;28;20045;-71
2022/08/26 10:05:33;;;;;;;13.80;10.77;;;27.00;50.70;25.90;101114.00;;;;5080505;28;20040;-71
2022/08/26 10:08:26;;;;;;;14.45;10.35;;;27.00;50.70;25.90;101118.00;;;;5060142;28;20269;-71
2022/08/26 10:11:37;;;;;;;14.40;10.40;;;27.00;50.70;25.90;101118.00;;;;5078650;28;20051;-71
2022/08/26 10:14:32;;;;;;;13.63;10.15;;;27.00;50.80;25.90;101116.00;;;;5071604;28;20058;-71
2022/08/26 10:17:33;;;;;;;12.95;10.57;;;27.00;50.70;25.90;101110.00;;;;5070535;28;20126;-71
2022/08/26 10:20:23;;;;;;;15.23;11.15;;;27.00;50.80;25.90;101115.00;;;;5064945;28;20401;-71
2022/08/26 10:23:17;;;;;;;12.23;10.52;;;27.10;50.90;25.90;101120.00;;;;5060065;28;20409;-71
2022/08/26 10:26:09;;;;;;;12.00;10.38;;;27.00;50.90;25.90;101118.00;;;;5075799;28;20048;-71
2022/08/26 10:29:02;;;;;;;12.27;11.00;;;27.00;50.90;25.90;101114.00;;;;5087598;28;20056;-71
2022/08/26 10:32:01;;;;;;;14.43;9.77;;;27.10;51.00;25.90;101114.00;;;;5054922;28;20371;-71
2022/08/26 10:34:47;;;;;;;13.45;10.07;;;27.00;50.70;25.90;101110.00;;;;5077009;28;20028;-71
2022/08/26 10:38:11;;;;;;;12.52;10.50;;;27.00;51.50;25.90;101114.00;;;;5067792;28;20422;-71
2022/08/26 10:41:07;;;;;;;14.13;10.90;;;27.00;50.90;25.90;101103.00;;;;5061457;28;20401;-71
2022/08/26 10:43:59;;;;;;;11.57;10.13;;;27.10;51.00;25.90;101107.00;;;;5058659;28;20097;-71
2022/08/26 10:46:55;;;;;;;13.60;10.73;;;27.10;51.00;25.90;101105.00;;;;5064809;28;20052;-72
2022/08/26 10:49:41;;;;;;;12.00;10.65;;;27.10;51.10;25.90;101099.00;;;;5064771;28;20131;-72
2022/08/26 10:53:10;;;;;;;13.25;10.73;;;27.10;51.00;25.90;101093.00;;;;5069572;28;20036;-72
2022/08/26 10:56:31;;;;;;;12.68;10.00;;;27.00;51.00;25.90;101090.00;;;;5068675;28;20506;-72
2022/08/26 10:59:29;;;;;;;11.30;9.60;;;27.10;51.10;25.90;101091.00;;;;5068596;28;20036;-71
2022/08/26 11:02:44;;;;;;;11.77;9.70;;;27.00;51.10;25.90;101090.00;;;;5086629;28;20040;-72
2022/08/26 11:05:30;;;;;;;12.10;10.40;;;27.10;51.10;25.90;101088.00;;;;5064607;28;20111;-72
2022/08/26 11:08:19;;;;;;;12.57;9.98;;;27.10;51.10;25.90;101081.00;;;;5069025;28;20402;-71
2022/08/26 11:11:05;;;;;;;15.00;11.13;;;27.10;51.20;25.90;101094.00;;;;5078667;28;20028;-72
2022/08/26 11:13:59;;;;;;;14.80;11.02;;;27.10;51.20;25.90;101085.00;;;;5092967;28;20044;-75
2022/08/26 11:16:47;;;;;;;13.23;9.93;;;27.00;51.30;25.90;101088.00;;;;5069718;28;20115;-72
2022/08/26 11:19:39;;;;;;;11.02;9.40;;;27.10;51.40;25.90;101088.00;;;;5067618;28;20507;-71
2022/08/26 11:22:34;;;;;;;12.00;10.68;;;27.10;51.30;25.90;101087.00;;;;5089417;28;20495;-72
2022/08/26 11:25:22;;;;;;;11.65;10.13;;;27.10;51.30;25.90;101091.00;;;;5082012;28;20044;-72
2022/08/26 11:28:08;;;;;;;12.77;10.00;;;27.20;51.40;25.90;101090.00;;;;5067425;28;20535;-71
2022/08/26 11:30:55;;;;;;;11.52;10.32;;;27.10;51.30;25.90;101086.00;;;;5080792;28;20090;-71
2022/08/26 11:34:02;;;;;;;14.43;10.32;;;27.10;51.40;25.90;101094.00;;;;5084428;28;20044;-71
2022/08/26 11:36:54;;;;;;;12.52;9.18;;;27.10;51.50;25.90;101095.00;;;;5071325;28;20048;-72
2022/08/26 11:39:52;;;;;;;13.18;10.02;;;27.10;51.50;25.90;101088.00;;;;5085073;28;20117;-72
2022/08/26 11:42:43;;;;;;;11.35;9.55;;;27.10;51.40;25.90;101092.00;;;;5066183;28;20040;-72
2022/08/26 11:45:41;;;;;;;10.75;9.57;;;27.10;51.30;25.90;101094.00;;;;5075162;28;20126;-71
2022/08/26 11:48:38;;;;;;;12.30;9.32;;;27.10;51.50;25.90;101083.00;;;;5069871;28;20123;-72
2022/08/26 11:51:25;;;;;;;10.48;9.38;;;27.10;51.40;25.90;101089.00;;;;5073875;28;20180;-72
2022/08/26 11:54:14;;;;;;;11.48;9.57;;;27.10;51.40;25.90;101077.00;;;;5079852;28;20500;-72
2022/08/26 11:57:00;;;;;;;11.68;9.45;;;27.10;51.40;25.90;101080.00;;;;5092003;28;20119;-71
2022/08/26 11:59:46;;;;;;;12.65;10.05;;;27.00;51.20;25.90;101090.00;;;;5091090;28;20040;-72
2022/08/26 12:02:32;;;;;;;12.07;9.75;;;27.10;51.40;25.90;101085.00;;;;5084143;28;20052;-71
2022/08/26 12:05:26;;;;;;;11.30;9.75;;;27.00;51.40;25.90;101073.00;;;;5067156;28;20478;-71
2022/08/26 12:08:20;;;;;;;13.02;10.68;;;27.10;51.50;25.90;101067.00;;;;5068089;28;20121;-73
2022/08/26 12:11:12;;;;;;;14.45;11.02;;;27.10;51.60;26.00;101067.00;;;;5060525;28;20130;-72
2022/08/26 12:14:06;;;;;;;14.30;10.55;;;27.10;52.20;26.00;101067.00;;;;5066006;28;20044;-73
2022/08/26 12:16:55;;;;;;;12.52;10.25;;;27.10;51.60;25.90;101061.00;;;;5077046;28;20509;-72
2022/08/26 12:19:41;;;;;;;11.15;9.73;;;27.10;51.40;26.00;101064.00;;;;5067476;28;20052;-72
2022/08/26 12:22:34;;;;;;;13.15;11.73;;;27.10;51.40;26.00;101058.00;;;;5070021;28;20410;-73
2022/08/26 12:25:22;;;;;;;11.88;10.68;;;27.10;51.50;26.00;101057.00;;;;5055491;28;20044;-72